sensor_id;sensor_type;location;lat;lon;timestamp;pressure;altitude;pressure_sealevel;temperature;humidity
73551;BME280;61816;53.582;10.096;2023-04-01T00:00:51;54557.53;;;-144.73;100.00
73551;BME280;61816;53.582;10.096;2023-04-01T00:03:18;54563.69;;;-144.73;100.00
73551;BME280;61816;53.582;10.096;2023-04-01T00:05:45;54547.28;;;-144.73;100.00
73551;BME280;61816;53.582;10.096;2023-04-01T00:08:11;54576.00;;;-144.73;100.00
73551;BME280;61816;53.582;10.096;2023-04-01T00:10:36;54592.44;;;-144.73;100.00
73551;BME280;61816;53.582;10.096;2023-04-01T00:13:02;54584.22;;;-144.73;100.00
73551;BME280;61816;53.582;10.096;2023-04-01T00:15:28;54561.63;;;-144.73;100.00
73551;BME280;61816;53.582;10.096;2023-04-01T00:17:54;54578.06;;;-144.73;100.00
73551;BME280;61816;53.582;10.096;2023-04-01T00:20:19;54547.28;;;-144.73;100.00
73551;BME280;61816;53.582;10.096;2023-04-01T00:22:46;54600.63;;;-144.73;100.00
73551;BME280;61816;53.582;10.096;2023-04-01T00:25:11;54571.91;;;-144.73;100.00
73551;BME280;61816;53.582;10.096;2023-04-01T00:27:37;54563.69;;;-144.73;100.00
73551;BME280;61816;53.582;10.096;2023-04-01T00:30:03;54588.31;;;-144.73;100.00
73551;BME280;61816;53.582;10.096;2023-04-01T00:32:28;54600.63;;;-144.73;100.00
73551;BME280;61816;53.582;10.096;2023-04-01T00:34:55;54596.53;;;-144.73;100.00
73551;BME280;61816;53.582;10.096;2023-04-01T00:37:21;54571.91;;;-144.73;100.00
73551;BME280;61816;53.582;10.096;2023-04-01T00:39:49;54571.91;;;-144.73;100.00
73551;BME280;61816;53.582;10.096;2023-04-01T00:42:15;54555.47;;;-144.73;100.00
73551;BME280;61816;53.582;10.096;2023-04-01T00:44:44;54600.63;;;-144.73;100.00
73551;BME280;61816;53.582;10.096;2023-04-01T00:47:17;54571.91;;;-144.73;100.00
73551;BME280;61816;53.582;10.096;2023-04-01T00:49:46;54606.78;;;-144.73;100.00
73551;BME280;61816;53.582;10.096;2023-04-01T00:52:15;54600.63;;;-144.73;100.00
73551;BME280;61816;53.582;10.096;2023-04-01T00:54:43;54600.63;;;-144.73;100.00
73551;BME280;61816;53.582;10.096;2023-04-01T00:57:12;54612.97;;;-144.73;100.00
73551;BME280;61816;53.582;10.096;2023-04-01T00:59:43;54584.22;;;-144.73;100.00
73551;BME280;61816;53.582;10.096;2023-04-01T01:02:10;54551.38;;;-144.73;100.00
73551;BME280;61816;53.582;10.096;2023-04-01T01:04:37;54567.81;;;-144.73;100.00
73551;BME280;61816;53.582;10.096;2023-04-01T01:10:20;54584.22;;;-144.73;100.00
73551;BME280;61816;53.582;10.096;2023-04-01T01:15:41;54539.06;;;-144.73;100.00
73551;BME280;61816;53.582;10.096;2023-04-01T01:32:35;54592.44;;;-144.73;100.00
73551;BME280;61816;53.582;10.096;2023-04-01T01:35:24;54592.44;;;-144.73;100.00
73551;BME280;61816;53.582;10.096;2023-04-01T01:37:56;54596.53;;;-144.73;100.00
73551;BME280;61816;53.582;10.096;2023-04-01T01:40:24;54580.13;;;-144.73;100.00
73551;BME280;61816;53.582;10.096;2023-04-01T01:42:55;54584.22;;;-144.73;100.00
73551;BME280;61816;53.582;10.096;2023-04-01T01:45:23;54588.31;;;-144.73;100.00
73551;BME280;61816;53.582;10.096;2023-04-01T01:47:50;54600.63;;;-144.73;100.00
73551;BME280;61816;53.582;10.096;2023-04-01T01:50:18;54563.69;;;-144.73;100.00
73551;BME280;61816;53.582;10.096;2023-04-01T01:52:45;54539.06;;;-144.73;100.00
73551;BME280;61816;53.582;10.096;2023-04-01T01:55:44;54547.28;;;-144.73;100.00
73551;BME280;61816;53.582;10.096;2023-04-01T01:58:32;54567.81;;;-144.73;100.00
73551;BME280;61816;53.582;10.096;2023-04-01T02:01:07;54588.31;;;-144.73;100.00
73551;BME280;61816;53.582;10.096;2023-04-01T02:03:36;54588.31;;;-144.73;100.00
73551;BME280;61816;53.582;10.096;2023-04-01T02:06:06;54617.06;;;-144.73;100.00
73551;BME280;61816;53.582;10.096;2023-04-01T02:08:36;54559.59;;;-144.73;100.00
73551;BME280;61816;53.582;10.096;2023-04-01T02:11:11;54567.81;;;-144.73;100.00
73551;BME280;61816;53.582;10.096;2023-04-01T02:13:40;54596.53;;;-144.73;100.00
73551;BME280;61816;53.582;10.096;2023-04-01T02:16:13;54649.91;;;-144.73;100.00
73551;BME280;61816;53.582;10.096;2023-04-01T02:18:42;54617.06;;;-144.73;100.00
73551;BME280;61816;53.582;10.096;2023-04-01T02:21:10;54600.63;;;-144.73;100.00
73551;BME280;61816;53.582;10.096;2023-04-01T02:23:37;54596.53;;;-144.73;100.00
73551;BME280;61816;53.582;10.096;2023-04-01T02:26:06;54600.63;;;-144.73;100.00
73551;BME280;61816;53.582;10.096;2023-04-01T02:28:34;54608.84;;;-144.73;100.00
73551;BME280;61816;53.582;10.096;2023-04-01T02:31:03;54571.91;;;-144.73;100.00
73551;BME280;61816;53.582;10.096;2023-04-01T02:33:30;54596.53;;;-144.73;100.00
73551;BME280;61816;53.582;10.096;2023-04-01T02:35:57;54592.44;;;-144.73;100.00
73551;BME280;61816;53.582;10.096;2023-04-01T02:38:23;54592.44;;;-144.73;100.00
73551;BME280;61816;53.582;10.096;2023-04-01T02:40:51;54573.97;;;-144.73;100.00
73551;BME280;61816;53.582;10.096;2023-04-01T02:43:21;54592.44;;;-144.73;100.00
73551;BME280;61816;53.582;10.096;2023-04-01T02:45:46;54588.31;;;-144.73;100.00
73551;BME280;61816;53.582;10.096;2023-04-01T02:48:12;54555.47;;;-144.73;100.00
73551;BME280;61816;53.582;10.096;2023-04-01T02:50:39;54588.31;;;-144.73;100.00
73551;BME280;61816;53.582;10.096;2023-04-01T02:53:05;54617.06;;;-144.73;100.00
73551;BME280;61816;53.582;10.096;2023-04-01T02:55:32;54588.31;;;-144.73;100.00
73551;BME280;61816;53.582;10.096;2023-04-01T02:57:58;54600.63;;;-144.73;100.00
73551;BME280;61816;53.582;10.096;2023-04-01T03:00:24;54576.00;;;-144.73;100.00
73551;BME280;61816;53.582;10.096;2023-04-01T03:02:52;54617.06;;;-144.73;100.00
73551;BME280;61816;53.582;10.096;2023-04-01T03:05:19;54580.13;;;-144.73;100.00
73551;BME280;61816;53.582;10.096;2023-04-01T03:07:46;54588.31;;;-144.73;100.00
73551;BME280;61816;53.582;10.096;2023-04-01T03:10:12;54594.47;;;-144.73;100.00
73551;BME280;61816;53.582;10.096;2023-04-01T03:12:38;54592.44;;;-144.73;100.00
73551;BME280;61816;53.582;10.096;2023-04-01T03:15:04;54604.75;;;-144.73;100.00
73551;BME280;61816;53.582;10.096;2023-04-01T03:17:30;54580.13;;;-144.73;100.00
73551;BME280;61816;53.582;10.096;2023-04-01T03:19:55;54596.53;;;-144.73;100.00
73551;BME280;61816;53.582;10.096;2023-04-01T03:22:21;54561.63;;;-144.73;100.00
73551;BME280;61816;53.582;10.096;2023-04-01T03:24:47;54596.53;;;-144.73;100.00
73551;BME280;61816;53.582;10.096;2023-04-01T03:27:13;54567.81;;;-144.73;100.00
73551;BME280;61816;53.582;10.096;2023-04-01T03:29:38;54610.91;;;-144.73;100.00
73551;BME280;61816;53.582;10.096;2023-04-01T03:32:04;54592.44;;;-144.73;100.00
73551;BME280;61816;53.582;10.096;2023-04-01T03:34:29;54563.69;;;-144.73;100.00
73551;BME280;61816;53.582;10.096;2023-04-01T03:36:55;54596.53;;;-144.73;100.00
73551;BME280;61816;53.582;10.096;2023-04-01T03:39:20;54592.44;;;-144.73;100.00
73551;BME280;61816;53.582;10.096;2023-04-01T03:41:47;54576.00;;;-144.73;100.00
73551;BME280;61816;53.582;10.096;2023-04-01T03:44:13;54592.44;;;-144.73;100.00
73551;BME280;61816;53.582;10.096;2023-04-01T03:46:38;54559.59;;;-144.73;100.00
73551;BME280;61816;53.582;10.096;2023-04-01T03:49:11;54580.13;;;-144.73;100.00
73551;BME280;61816;53.582;10.096;2023-04-01T03:51:41;54596.53;;;-144.73;100.00
73551;BME280;61816;53.582;10.096;2023-04-01T03:54:08;54621.16;;;-144.73;100.00
73551;BME280;61816;53.582;10.096;2023-04-01T03:56:34;54582.16;;;-144.73;100.00
73551;BME280;61816;53.582;10.096;2023-04-01T03:59:03;54588.31;;;-144.73;100.00
73551;BME280;61816;53.582;10.096;2023-04-01T04:01:28;54588.31;;;-144.73;100.00
73551;BME280;61816;53.582;10.096;2023-04-01T04:03:55;54549.31;;;-144.73;100.00
73551;BME280;61816;53.582;10.096;2023-04-01T04:06:22;54539.06;;;-144.73;100.00
73551;BME280;61816;53.582;10.096;2023-04-01T04:08:48;54649.91;;;-144.73;100.00
73551;BME280;61816;53.582;10.096;2023-04-01T04:11:15;54604.75;;;-144.73;100.00
73551;BME280;61816;53.582;10.096;2023-04-01T04:13:41;54559.59;;;-144.73;100.00
73551;BME280;61816;53.582;10.096;2023-04-01T04:16:08;54580.13;;;-144.73;100.00
73551;BME280;61816;53.582;10.096;2023-04-01T04:18:35;54567.81;;;-144.73;100.00
73551;BME280;61816;53.582;10.096;2023-04-01T04:21:01;54567.81;;;-144.73;100.00
73551;BME280;61816;53.582;10.096;2023-04-01T04:23:27;54580.13;;;-144.73;100.00
73551;BME280;61816;53.582;10.096;2023-04-01T04:28:27;54608.84;;;-144.73;100.00
73551;BME280;61816;53.582;10.096;2023-04-01T04:30:54;54612.97;;;-144.73;100.00
73551;BME280;61816;53.582;10.096;2023-04-01T04:33:20;54588.31;;;-144.73;100.00
73551;BME280;61816;53.582;10.096;2023-04-01T04:35:46;54580.13;;;-144.73;100.00
73551;BME280;61816;53.582;10.096;2023-04-01T04:38:12;54576.00;;;-144.73;100.00
73551;BME280;61816;53.582;10.096;2023-04-01T04:40:39;54629.38;;;-144.73;100.00
73551;BME280;61816;53.582;10.096;2023-04-01T04:43:06;54557.53;;;-144.73;100.00
73551;BME280;61816;53.582;10.096;2023-04-01T04:45:32;54617.06;;;-144.73;100.00
73551;BME280;61816;53.582;10.096;2023-04-01T04:47:59;54612.97;;;-144.73;100.00
73551;BME280;61816;53.582;10.096;2023-04-01T04:50:27;54586.28;;;-144.73;100.00
73551;BME280;61816;53.582;10.096;2023-04-01T04:52:52;54588.31;;;-144.73;100.00
73551;BME280;61816;53.582;10.096;2023-04-01T04:55:18;54588.31;;;-144.73;100.00
73551;BME280;61816;53.582;10.096;2023-04-01T04:57:44;54576.00;;;-144.73;100.00
73551;BME280;61816;53.582;10.096;2023-04-01T05:00:10;54555.47;;;-144.73;100.00
73551;BME280;61816;53.582;10.096;2023-04-01T05:02:36;54600.63;;;-144.73;100.00
73551;BME280;61816;53.582;10.096;2023-04-01T05:05:02;54563.69;;;-144.73;100.00
73551;BME280;61816;53.582;10.096;2023-04-01T05:07:28;54639.63;;;-144.73;100.00
73551;BME280;61816;53.582;10.096;2023-04-01T05:09:53;54576.00;;;-144.73;100.00
73551;BME280;61816;53.582;10.096;2023-04-01T05:12:19;54580.13;;;-144.73;100.00
73551;BME280;61816;53.582;10.096;2023-04-01T05:14:45;54600.63;;;-144.73;100.00
73551;BME280;61816;53.582;10.096;2023-04-01T05:17:11;54539.06;;;-144.73;100.00
73551;BME280;61816;53.582;10.096;2023-04-01T05:19:38;54563.69;;;-144.73;100.00
73551;BME280;61816;53.582;10.096;2023-04-01T05:22:05;54608.84;;;-144.73;100.00
73551;BME280;61816;53.582;10.096;2023-04-01T05:24:32;54617.06;;;-144.73;100.00
73551;BME280;61816;53.582;10.096;2023-04-01T05:26:58;54580.13;;;-144.73;100.00
73551;BME280;61816;53.582;10.096;2023-04-01T05:29:25;54604.75;;;-144.73;100.00
73551;BME280;61816;53.582;10.096;2023-04-01T05:31:51;54567.81;;;-144.73;100.00
73551;BME280;61816;53.582;10.096;2023-04-01T05:34:16;54604.75;;;-144.73;100.00
73551;BME280;61816;53.582;10.096;2023-04-01T05:36:42;54584.22;;;-144.73;100.00
73551;BME280;61816;53.582;10.096;2023-04-01T05:39:08;54604.75;;;-144.73;100.00
73551;BME280;61816;53.582;10.096;2023-04-01T05:41:38;54588.31;;;-144.73;100.00
73551;BME280;61816;53.582;10.096;2023-04-01T05:44:04;54621.16;;;-144.73;100.00
73551;BME280;61816;53.582;10.096;2023-04-01T05:46:30;54576.00;;;-144.73;100.00
73551;BME280;61816;53.582;10.096;2023-04-01T05:48:56;54561.63;;;-144.73;100.00
73551;BME280;61816;53.582;10.096;2023-04-01T05:51:22;54576.00;;;-144.73;100.00
73551;BME280;61816;53.582;10.096;2023-04-01T05:53:47;54584.22;;;-144.73;100.00
73551;BME280;61816;53.582;10.096;2023-04-01T05:56:13;54586.28;;;-144.73;100.00
73551;BME280;61816;53.582;10.096;2023-04-01T05:58:39;54617.06;;;-144.73;100.00
73551;BME280;61816;53.582;10.096;2023-04-01T06:01:09;54590.38;;;-144.73;100.00
73551;BME280;61816;53.582;10.096;2023-04-01T06:03:35;54584.22;;;-144.73;100.00
73551;BME280;61816;53.582;10.096;2023-04-01T06:06:03;54608.84;;;-144.73;100.00
73551;BME280;61816;53.582;10.096;2023-04-01T06:08:34;54584.22;;;-144.73;100.00
73551;BME280;61816;53.582;10.096;2023-04-01T06:19:58;54555.47;;;-144.73;100.00
73551;BME280;61816;53.582;10.096;2023-04-01T06:54:21;54582.16;;;-144.73;100.00
73551;BME280;61816;53.582;10.096;2023-04-01T06:56:54;54608.84;;;-144.73;100.00
73551;BME280;61816;53.582;10.096;2023-04-01T06:59:28;54580.13;;;-144.73;100.00
73551;BME280;61816;53.582;10.096;2023-04-01T07:01:59;54592.44;;;-144.73;100.00
73551;BME280;61816;53.582;10.096;2023-04-01T07:04:30;54588.31;;;-144.73;100.00
73551;BME280;61816;53.582;10.096;2023-04-01T07:07:04;54571.91;;;-144.73;100.00
73551;BME280;61816;53.582;10.096;2023-04-01T07:09:34;54580.13;;;-144.73;100.00
73551;BME280;61816;53.582;10.096;2023-04-01T07:12:10;54580.13;;;-144.73;100.00
73551;BME280;61816;53.582;10.096;2023-04-01T07:14:40;54584.22;;;-144.73;100.00
73551;BME280;61816;53.582;10.096;2023-04-01T07:17:25;54563.69;;;-144.73;100.00
73551;BME280;61816;53.582;10.096;2023-04-01T07:20:05;54563.69;;;-144.73;100.00
73551;BME280;61816;53.582;10.096;2023-04-01T07:22:43;54625.28;;;-144.73;100.00
73551;BME280;61816;53.582;10.096;2023-04-01T07:25:43;54629.38;;;-144.73;100.00
73551;BME280;61816;53.582;10.096;2023-04-01T07:28:15;54584.22;;;-144.73;100.00
73551;BME280;61816;53.582;10.096;2023-04-01T07:33:37;54619.13;;;-144.73;100.00
73551;BME280;61816;53.582;10.096;2023-04-01T07:36:19;54580.13;;;-144.73;100.00
73551;BME280;61816;53.582;10.096;2023-04-01T07:38:56;54612.97;;;-144.73;100.00
73551;BME280;61816;53.582;10.096;2023-04-01T07:46:56;54604.75;;;-144.73;100.00
73551;BME280;61816;53.582;10.096;2023-04-01T07:49:46;54571.91;;;-144.73;100.00
73551;BME280;61816;53.582;10.096;2023-04-01T07:52:32;54592.44;;;-144.73;100.00
73551;BME280;61816;53.582;10.096;2023-04-01T07:55:26;54559.59;;;-144.73;100.00
73551;BME280;61816;53.582;10.096;2023-04-01T07:58:10;54592.44;;;-144.73;100.00
73551;BME280;61816;53.582;10.096;2023-04-01T08:00:49;54563.69;;;-144.73;100.00
73551;BME280;61816;53.582;10.096;2023-04-01T08:06:01;54584.22;;;-144.73;100.00
73551;BME280;61816;53.582;10.096;2023-04-01T08:08:40;54608.84;;;-144.73;100.00
73551;BME280;61816;53.582;10.096;2023-04-01T08:11:33;54625.28;;;-144.73;100.00
73551;BME280;61816;53.582;10.096;2023-04-01T08:21:49;54612.97;;;-144.73;100.00
73551;BME280;61816;53.582;10.096;2023-04-01T08:24:29;54600.63;;;-144.73;100.00
73551;BME280;61816;53.582;10.096;2023-04-01T08:26:59;54551.38;;;-144.73;100.00
73551;BME280;61816;53.582;10.096;2023-04-01T08:29:52;54588.31;;;-144.73;100.00
73551;BME280;61816;53.582;10.096;2023-04-01T08:32:25;54580.13;;;-144.73;100.00
73551;BME280;61816;53.582;10.096;2023-04-01T08:37:41;54584.22;;;-144.73;100.00
73551;BME280;61816;53.582;10.096;2023-04-01T08:43:22;54584.22;;;-144.73;100.00
73551;BME280;61816;53.582;10.096;2023-04-01T08:46:32;54604.75;;;-144.73;100.00
73551;BME280;61816;53.582;10.096;2023-04-01T08:52:22;54608.84;;;-144.73;100.00
73551;BME280;61816;53.582;10.096;2023-04-01T08:55:31;54580.13;;;-144.73;100.00
73551;BME280;61816;53.582;10.096;2023-04-01T09:00:44;54559.59;;;-144.73;100.00
73551;BME280;61816;53.582;10.096;2023-04-01T09:06:17;54567.81;;;-144.73;100.00
73551;BME280;61816;53.582;10.096;2023-04-01T09:09:09;54588.31;;;-144.73;100.00
73551;BME280;61816;53.582;10.096;2023-04-01T09:12:14;54565.75;;;-144.73;100.00
73551;BME280;61816;53.582;10.096;2023-04-01T09:20:39;54543.16;;;-144.73;100.00
73551;BME280;61816;53.582;10.096;2023-04-01T09:23:31;54596.53;;;-144.73;100.00
73551;BME280;61816;53.582;10.096;2023-04-01T09:26:21;54596.53;;;-144.73;100.00
73551;BME280;61816;53.582;10.096;2023-04-01T09:40:30;54563.69;;;-144.73;100.00
73551;BME280;61816;53.582;10.096;2023-04-01T09:43:16;54654.00;;;-144.73;100.00
73551;BME280;61816;53.582;10.096;2023-04-01T09:48:41;54567.81;;;-144.73;100.00
73551;BME280;61816;53.582;10.096;2023-04-01T09:59:26;54590.38;;;-144.73;100.00
73551;BME280;61816;53.582;10.096;2023-04-01T10:02:14;54594.47;;;-144.73;100.00
73551;BME280;61816;53.582;10.096;2023-04-01T10:08:19;54563.69;;;-144.73;100.00
73551;BME280;61816;53.582;10.096;2023-04-01T10:11:04;54576.00;;;-144.73;100.00
73551;BME280;61816;53.582;10.096;2023-04-01T10:13:48;54649.91;;;-144.73;100.00
73551;BME280;61816;53.582;10.096;2023-04-01T10:19:22;54567.81;;;-144.73;100.00
73551;BME280;61816;53.582;10.096;2023-04-01T10:36:16;54569.84;;;-144.73;100.00
73551;BME280;61816;53.582;10.096;2023-04-01T10:41:42;54569.84;;;-144.73;100.00
73551;BME280;61816;53.582;10.096;2023-04-01T11:01:36;54580.13;;;-144.73;100.00
73551;BME280;61816;53.582;10.096;2023-04-01T11:13:17;54567.81;;;-144.73;100.00
73551;BME280;61816;53.582;10.096;2023-04-01T11:19:13;54592.44;;;-144.73;100.00
73551;BME280;61816;53.582;10.096;2023-04-01T11:30:19;54571.91;;;-144.73;100.00
73551;BME280;61816;53.582;10.096;2023-04-01T11:35:32;54600.63;;;-144.73;100.00
73551;BME280;61816;53.582;10.096;2023-04-01T11:38:08;54588.31;;;-144.73;100.00
73551;BME280;61816;53.582;10.096;2023-04-01T11:40:59;54600.63;;;-144.73;100.00
73551;BME280;61816;53.582;10.096;2023-04-01T11:43:34;54608.84;;;-144.73;100.00
73551;BME280;61816;53.582;10.096;2023-04-01T11:46:14;54600.63;;;-144.73;100.00
73551;BME280;61816;53.582;10.096;2023-04-01T11:54:19;54621.16;;;-144.73;100.00
73551;BME280;61816;53.582;10.096;2023-04-01T11:57:09;54584.22;;;-144.73;100.00
73551;BME280;61816;53.582;10.096;2023-04-01T11:59:41;54600.63;;;-144.73;100.00
73551;BME280;61816;53.582;10.096;2023-04-01T12:05:30;54600.63;;;-144.73;100.00
73551;BME280;61816;53.582;10.096;2023-04-01T12:14:05;54596.53;;;-144.73;100.00
73551;BME280;61816;53.582;10.096;2023-04-01T12:16:58;54590.38;;;-144.73;100.00
73551;BME280;61816;53.582;10.096;2023-04-01T12:19:39;54600.63;;;-144.73;100.00
73551;BME280;61816;53.582;10.096;2023-04-01T12:25:38;54625.28;;;-144.73;100.00
73551;BME280;61816;53.582;10.096;2023-04-01T12:33:34;54604.75;;;-144.73;100.00
73551;BME280;61816;53.582;10.096;2023-04-01T12:36:16;54578.06;;;-144.73;100.00
73551;BME280;61816;53.582;10.096;2023-04-01T12:38:57;54594.47;;;-144.73;100.00
73551;BME280;61816;53.582;10.096;2023-04-01T12:47:15;54559.59;;;-144.73;100.00
73551;BME280;61816;53.582;10.096;2023-04-01T13:02:57;54610.91;;;-144.73;100.00
73551;BME280;61816;53.582;10.096;2023-04-01T13:08:43;54600.63;;;-144.73;100.00
73551;BME280;61816;53.582;10.096;2023-04-01T13:11:53;54590.38;;;-144.73;100.00
73551;BME280;61816;53.582;10.096;2023-04-01T13:22:50;54604.75;;;-144.73;100.00
73551;BME280;61816;53.582;10.096;2023-04-01T13:33:47;54621.16;;;-144.73;100.00
73551;BME280;61816;53.582;10.096;2023-04-01T13:44:42;54584.22;;;-144.73;100.00
73551;BME280;61816;53.582;10.096;2023-04-01T13:47:43;54612.97;;;-144.73;100.00
73551;BME280;61816;53.582;10.096;2023-04-01T13:53:17;54573.97;;;-144.73;100.00
73551;BME280;61816;53.582;10.096;2023-04-01T13:55:59;54582.16;;;-144.73;100.00
73551;BME280;61816;53.582;10.096;2023-04-01T14:01:44;54584.22;;;-144.73;100.00
73551;BME280;61816;53.582;10.096;2023-04-01T14:21:17;54586.28;;;-144.73;100.00
73551;BME280;61816;53.582;10.096;2023-04-01T14:23:46;54584.22;;;-144.73;100.00
73551;BME280;61816;53.582;10.096;2023-04-01T14:32:16;54619.13;;;-144.73;100.00
73551;BME280;61816;53.582;10.096;2023-04-01T14:34:55;54588.31;;;-144.73;100.00
73551;BME280;61816;53.582;10.096;2023-04-01T14:37:58;54592.44;;;-144.73;100.00
73551;BME280;61816;53.582;10.096;2023-04-01T14:43:47;54633.47;;;-144.73;100.00
73551;BME280;61816;53.582;10.096;2023-04-01T14:48:56;54584.22;;;-144.73;100.00
73551;BME280;61816;53.582;10.096;2023-04-01T14:51:33;54576.00;;;-144.73;100.00
73551;BME280;61816;53.582;10.096;2023-04-01T14:54:06;54588.31;;;-144.73;100.00
73551;BME280;61816;53.582;10.096;2023-04-01T14:59:09;54576.00;;;-144.73;100.00
73551;BME280;61816;53.582;10.096;2023-04-01T15:04:39;54567.81;;;-144.73;100.00
73551;BME280;61816;53.582;10.096;2023-04-01T15:10:27;54588.31;;;-144.73;100.00
73551;BME280;61816;53.582;10.096;2023-04-01T15:12:57;54617.06;;;-144.73;100.00
73551;BME280;61816;53.582;10.096;2023-04-01T15:15:34;54625.28;;;-144.73;100.00
73551;BME280;61816;53.582;10.096;2023-04-01T15:18:10;54608.84;;;-144.73;100.00
73551;BME280;61816;53.582;10.096;2023-04-01T15:31:34;54557.53;;;-144.73;100.00
73551;BME280;61816;53.582;10.096;2023-04-01T15:37:03;54612.97;;;-144.73;100.00
73551;BME280;61816;53.582;10.096;2023-04-01T15:39:41;54596.53;;;-144.73;100.00
73551;BME280;61816;53.582;10.096;2023-04-01T15:42:16;54654.00;;;-144.73;100.00
73551;BME280;61816;53.582;10.096;2023-04-01T15:50:00;54600.63;;;-144.73;100.00
73551;BME280;61816;53.582;10.096;2023-04-01T15:52:57;54596.53;;;-144.73;100.00
73551;BME280;61816;53.582;10.096;2023-04-01T15:55:47;54612.97;;;-144.73;100.00
73551;BME280;61816;53.582;10.096;2023-04-01T16:01:47;54610.91;;;-144.73;100.00
73551;BME280;61816;53.582;10.096;2023-04-01T16:04:47;54571.91;;;-144.73;100.00
73551;BME280;61816;53.582;10.096;2023-04-01T16:07:25;54592.44;;;-144.73;100.00
73551;BME280;61816;53.582;10.096;2023-04-01T16:10:16;54584.22;;;-144.73;100.00
73551;BME280;61816;53.582;10.096;2023-04-01T16:18:57;54576.00;;;-144.73;100.00
73551;BME280;61816;53.582;10.096;2023-04-01T16:21:43;54571.91;;;-144.73;100.00
73551;BME280;61816;53.582;10.096;2023-04-01T16:24:19;54596.53;;;-144.73;100.00
73551;BME280;61816;53.582;10.096;2023-04-01T16:26:51;54580.13;;;-144.73;100.00
73551;BME280;61816;53.582;10.096;2023-04-01T16:29:48;54637.59;;;-144.73;100.00
73551;BME280;61816;53.582;10.096;2023-04-01T16:32:22;54592.44;;;-144.73;100.00
73551;BME280;61816;53.582;10.096;2023-04-01T16:35:01;54617.06;;;-144.73;100.00
73551;BME280;61816;53.582;10.096;2023-04-01T16:37:38;54576.00;;;-144.73;100.00
73551;BME280;61816;53.582;10.096;2023-04-01T16:40:16;54612.97;;;-144.73;100.00
73551;BME280;61816;53.582;10.096;2023-04-01T16:42:52;54600.63;;;-144.73;100.00
73551;BME280;61816;53.582;10.096;2023-04-01T16:45:30;54604.75;;;-144.73;100.00
73551;BME280;61816;53.582;10.096;2023-04-01T16:48:06;54600.63;;;-144.73;100.00
73551;BME280;61816;53.582;10.096;2023-04-01T16:50:48;54604.75;;;-144.73;100.00
73551;BME280;61816;53.582;10.096;2023-04-01T16:53:21;54586.28;;;-144.73;100.00
73551;BME280;61816;53.582;10.096;2023-04-01T16:55:55;54625.28;;;-144.73;100.00
73551;BME280;61816;53.582;10.096;2023-04-01T16:58:37;54584.22;;;-144.73;100.00
73551;BME280;61816;53.582;10.096;2023-04-01T17:01:29;54629.38;;;-144.73;100.00
73551;BME280;61816;53.582;10.096;2023-04-01T17:04:27;54584.22;;;-144.73;100.00
73551;BME280;61816;53.582;10.096;2023-04-01T17:10:06;54604.75;;;-144.73;100.00
73551;BME280;61816;53.582;10.096;2023-04-01T17:12:56;54600.63;;;-144.73;100.00
73551;BME280;61816;53.582;10.096;2023-04-01T17:15:53;54590.38;;;-144.73;100.00
73551;BME280;61816;53.582;10.096;2023-04-01T17:35:22;54539.06;;;-144.73;100.00
73551;BME280;61816;53.582;10.096;2023-04-01T17:57:21;54563.69;;;-144.73;99.84
73551;BME280;61816;53.582;10.096;2023-04-01T18:03:08;54608.84;;;-144.73;100.00
73551;BME280;61816;53.582;10.096;2023-04-01T18:11:54;54573.97;;;-144.73;99.24
73551;BME280;61816;53.582;10.096;2023-04-01T18:17:48;54608.84;;;-144.73;97.88
73551;BME280;61816;53.582;10.096;2023-04-01T18:20:43;54604.75;;;-144.73;97.57
73551;BME280;61816;53.582;10.096;2023-04-01T18:23:21;54571.91;;;-144.73;97.69
73551;BME280;61816;53.582;10.096;2023-04-01T18:25:53;54590.38;;;-144.73;97.82
73551;BME280;61816;53.582;10.096;2023-04-01T18:28:32;54633.47;;;-144.73;97.86
73551;BME280;61816;53.582;10.096;2023-04-01T18:36:20;54567.81;;;-144.73;97.01
73551;BME280;61816;53.582;10.096;2023-04-01T18:38:57;54604.75;;;-144.73;97.36
73551;BME280;61816;53.582;10.096;2023-04-01T18:41:35;54580.13;;;-144.73;97.09
73551;BME280;61816;53.582;10.096;2023-04-01T18:50:11;54539.06;;;-144.73;96.96
73551;BME280;61816;53.582;10.096;2023-04-01T18:52:42;54584.22;;;-144.73;96.91
73551;BME280;61816;53.582;10.096;2023-04-01T18:55:28;54621.16;;;-144.73;96.23
73551;BME280;61816;53.582;10.096;2023-04-01T18:58:06;54563.69;;;-144.73;96.79
73551;BME280;61816;53.582;10.096;2023-04-01T19:00:39;54571.91;;;-144.73;95.21
73551;BME280;61816;53.582;10.096;2023-04-01T19:05:42;54608.84;;;-144.73;95.26
73551;BME280;61816;53.582;10.096;2023-04-01T19:14:03;54567.81;;;-144.73;94.14
73551;BME280;61816;53.582;10.096;2023-04-01T19:27:13;54586.28;;;-144.73;94.58
73551;BME280;61816;53.582;10.096;2023-04-01T19:29:56;54604.75;;;-144.73;95.03
73551;BME280;61816;53.582;10.096;2023-04-01T19:32:39;54551.38;;;-144.73;95.05
73551;BME280;61816;53.582;10.096;2023-04-01T19:35:27;54594.47;;;-144.73;93.57
73551;BME280;61816;53.582;10.096;2023-04-01T19:41:23;54588.31;;;-144.73;90.99
73551;BME280;61816;53.582;10.096;2023-04-01T19:46:48;54588.31;;;-144.73;89.91
73551;BME280;61816;53.582;10.096;2023-04-01T19:52:59;54584.22;;;-144.73;89.76
73551;BME280;61816;53.582;10.096;2023-04-01T19:55:21;54543.16;;;-144.73;89.09
73551;BME280;61816;53.582;10.096;2023-04-01T19:58:02;54594.47;;;-144.73;88.16